Main page
METAR-TAF:

METAR-TAF

Airports :

Wattisham, England

RAF Wattisham

latitude: 52-07N, longitude: 000-58E, elevation: 87 m

Current weather observation

The report was made 53 minutes ago, at 02:50 UTC
Wind 5 kt from the South/Southeast
Temperature 7°C
Humidity 93%
Pressure 1015 hPa
Visibility 10 km or more

METAR: EGUW 290250Z AUTO 15005KT 9999 OVC060/// 07/06 Q1015

Time: 04:43 (03:43 UTC)

Forecast

The report was made 16 hours and 57 minutes ago, at 10:46 UTC
Forecast valid from 28 at 12 UTC to 28 at 21 UTC
Wind 10 kt from the Northwest
Visibility 10 km or more
Scattered clouds at a height of 3000 ft

TAF: EGUW 281046Z 2812/2821 32010KT 9999 SCT030

Weather observations and forecasts of more than 4000 airports (METAR and TAF reports).

The available stations are represented by yellow and red dots on the map.

Hover mouse over dot to see the name of the station.

Then click to see weather observations and forecasts.

To change the map : click on the green buttons with a black cross to zoom in, on the green button with a dash to zoom out, or on the green arrows for adjacent maps.


METAR-TAF: